Maple, TX (79344)

4:36 PM CDT on August 20, 2014 (GMT -0500)
WT_Meso 2 MI. SW OF DORA, NM | Change Station
CLOSE
Current Station
Personal Weather Station
Location: Dora, NM
Elevation: 4339 ft
Nearby Weather Stations

Elev 4339 ft 33.92 °N, 103.36 °W | Updated 41 minutes ago

Overcast
Overcast
88 °F
Feels Like 86 °F
N
16
Wind Variable Wind from South
Gusts 20.0 mph

Today
High -- | Low -- °F
--% Chance of Precip.
Yesterday
High -- | Low -- °F
Precip. -- in
7:17 AM 8:32 PM
Waning Crescent, 19% visible
Pressure 29.94 in
Visibility 7.0 miles
Clouds Mostly Cloudy 8000 ft
Heat Index 86 °F
Dew Point 54 °F
Humidity 32%
Rainfall -999.00 in
Snow Depth Not available.
UV 4 out of 12
Pollen 7.30 out of 12
Air Quality Not available.
Flu Activity Not available.
SPECI KCVS 202126Z 18018G26KT 7SM VCTS -RA BKN080 BKN40 31/15 A2994 RMK LTG DSNT NE-SE

More Conditions Fewer Conditions

Pressure 29.94 in
Visibility 7.0 miles
Clouds Mostly Cloudy 8000 ft
Heat Index 86 °F
Dew Point 54 °F
Humidity 32%
Rainfall -999.00 in
Snow Depth Not available.
UV 4 out of 12
Pollen 7.30 out of 12
Air Quality Not available.
Flu Activity Not available.
SPECI KCVS 202126Z 18018G26KT 7SM VCTS -RA BKN080 BKN40 31/15 A2994 RMK LTG DSNT NE-SE

More Conditions Fewer Conditions

Nowcast | as of 4:29 PM CDT on August 20, 2014

Through 530 PM...widely scattered showers and thunderstorms will continue to develop across western and central portions of the South Plains and southwestern Texas Panhandle. At 430 PM...the greatest concentration of storms extended from near Hereford to Bovina and West Camp...as well as from Levelland and Ropesville southward to near Brownfield and New Moore. The strongest storms will be capable of producing cloud to ground lightning...gusty winds to 50 mph...and localized downpours as they move northeast at around 15 mph. Move inside a sturdy build if a thunderstorm approaches your area

×

10-Day Weather Forecast

Almanac

Astronomy

Aug. 20, 2014 Rise Set
Actual Time 7:17 AM CDT 8:32 PM CDT
Civil Twilight 6:51 AM CDT 8:58 PM CDT
Nautical Twilight 6:19 AM CDT 9:29 PM CDT
Astronomical Twilight 5:47 AM CDT 10:01 PM CDT
Moon 3:03 AM CDT 5:14 PM CDT
Length of Visible Light 14h 07m
Length of Day
13h 15m
Tomorrow will be 1m 55s shorter.
Waning Crescent, 19% of the Moon is Illuminated
Today
Waning Crescent
Aug 25
New
Sep 2
First Quarter
Sep 8
Full
Sep 15
Last Quarter

Today's Extremes

State Highs State Lows

Community

WunderPhotos

Upload Photos

1,745,763 photos uploaded!

WunderBlogs® & News

Nearby

Snow Depth

Station Depth Elevation
No new snow has been reported.

Earthquake Activity

City Distance Mag. Time & Date
No recent earthquake activity has been reported nearby.
Minimum magnitude displayed is 2.5.

Coastal Water Temperatures

Place Temperature
No Stations Reporting

Nearby Weather Stations